Time;durP1;ratioP1;P1;durP2;ratioP2;P2;SDS_P1;SDS_P2;PMS_P1;PMS_P2;Temp;Humidity;BMP_temperature;BMP_pressure;BME280_temperature;BME280_humidity;BME280_pressure;Samples;Min_cycle;Max_cycle;Signal;HPM_P1;HPM_P2
2022/04/26 03:36:39;;;;;;;26.40;14.77;;;8.20;99.90;;;;;;5091854;28;20472;-73
2022/04/26 03:39:06;;;;;;;22.33;14.05;;;8.20;99.90;;;;;;5091904;28;20435;-73
2022/04/26 03:41:33;;;;;;;20.58;13.60;;;8.20;99.90;;;;;;5091087;28;20481;-73
2022/04/26 03:43:59;;;;;;;23.05;13.88;;;8.10;99.90;;;;;;5091301;28;20032;-73
2022/04/26 03:46:24;;;;;;;26.58;14.75;;;8.10;99.90;;;;;;5091586;28;20673;-73
2022/04/26 03:48:50;;;;;;;22.45;13.55;;;8.00;99.90;;;;;;5091494;28;20040;-73
2022/04/26 03:51:15;;;;;;;26.95;14.07;;;8.00;99.90;;;;;;5091454;28;20079;-73
2022/04/26 03:53:41;;;;;;;24.17;13.48;;;8.00;99.90;;;;;;5091242;28;20040;-73
2022/04/26 03:56:07;;;;;;;21.83;13.23;;;8.00;99.90;;;;;;5091525;28;20041;-73
2022/04/26 03:58:33;;;;;;;23.42;12.68;;;8.00;99.90;;;;;;5091826;28;20048;-73
2022/04/26 04:00:59;;;;;;;25.90;13.23;;;7.90;99.90;;;;;;5090875;28;20123;-73
2022/04/26 04:03:26;;;;;;;20.55;12.77;;;8.00;99.90;;;;;;5091112;28;20093;-73
2022/04/26 04:05:52;;;;;;;29.88;13.30;;;7.90;99.90;;;;;;5091404;28;20430;-73
2022/04/26 04:08:18;;;;;;;24.77;13.40;;;7.90;99.90;;;;;;5091273;28;20078;-73
2022/04/26 04:10:44;;;;;;;22.08;12.23;;;7.90;99.90;;;;;;5090977;28;20486;-73
2022/04/26 04:13:10;;;;;;;26.77;12.63;;;7.90;99.90;;;;;;5090930;28;20040;-73
2022/04/26 04:15:36;;;;;;;19.08;11.35;;;7.90;99.90;;;;;;5091054;28;20504;-73
2022/04/26 04:18:02;;;;;;;26.20;12.68;;;7.90;99.90;;;;;;5090818;28;20089;-73
2022/04/26 04:20:29;;;;;;;20.25;10.60;;;7.90;99.90;;;;;;5090942;28;20040;-73
2022/04/26 04:22:56;;;;;;;25.80;11.98;;;8.00;99.90;;;;;;5090914;28;20621;-73
2022/04/26 04:25:22;;;;;;;24.80;12.10;;;8.00;99.90;;;;;;5091104;28;20048;-73
2022/04/26 04:27:48;;;;;;;23.02;11.15;;;8.00;99.90;;;;;;5073972;28;20127;-73
2022/04/26 04:30:14;;;;;;;26.70;12.05;;;8.00;99.90;;;;;;5122628;27;20077;-73
2022/04/26 04:32:40;;;;;;;20.65;11.30;;;8.00;99.90;;;;;;5131807;27;20047;-73
2022/04/26 04:35:06;;;;;;;22.63;12.07;;;8.00;99.90;;;;;;5131973;27;20054;-73
2022/04/26 04:37:32;;;;;;;24.27;11.52;;;8.00;99.90;;;;;;5126505;27;20035;-73
2022/04/26 04:39:59;;;;;;;23.70;10.68;;;8.00;99.90;;;;;;5110985;28;20050;-73
2022/04/26 04:42:24;;;;;;;23.10;11.20;;;8.00;99.90;;;;;;5110751;28;20478;-73
2022/04/26 04:44:50;;;;;;;23.38;10.63;;;8.10;99.90;;;;;;5094174;28;20055;-73
2022/04/26 04:47:16;;;;;;;24.15;11.65;;;8.10;99.90;;;;;;5110756;28;20036;-73
2022/04/26 04:49:41;;;;;;;24.08;11.10;;;8.10;99.90;;;;;;5112158;28;20036;-73
2022/04/26 04:52:07;;;;;;;21.58;10.63;;;8.10;99.90;;;;;;5111193;28;20055;-73
2022/04/26 04:54:33;;;;;;;23.77;11.07;;;8.10;99.90;;;;;;5110771;28;20490;-73
2022/04/26 04:56:59;;;;;;;22.02;10.48;;;8.10;99.90;;;;;;5110804;28;20124;-73
2022/04/26 04:59:28;;;;;;;18.75;10.02;;;8.10;99.90;;;;;;5111074;28;20060;-73
2022/04/26 05:01:53;;;;;;;23.83;10.40;;;8.20;99.90;;;;;;5110881;28;20040;-73
2022/04/26 05:04:19;;;;;;;20.42;10.48;;;8.10;99.90;;;;;;5110222;28;20050;-73
2022/04/26 05:06:44;;;;;;;23.90;10.40;;;8.20;99.90;;;;;;5104371;28;20044;-73
2022/04/26 05:09:10;;;;;;;19.42;10.20;;;8.20;99.90;;;;;;5088617;28;20036;-73
2022/04/26 05:11:36;;;;;;;20.08;10.60;;;8.20;99.90;;;;;;5088184;28;20051;-73
2022/04/26 05:14:01;;;;;;;23.48;10.43;;;8.20;99.90;;;;;;5088294;28;20153;-73
2022/04/26 05:16:27;;;;;;;19.00;10.50;;;8.20;99.90;;;;;;5088466;28;20493;-73
2022/04/26 05:18:52;;;;;;;22.40;10.43;;;8.20;99.90;;;;;;5088495;28;20075;-73
2022/04/26 05:21:18;;;;;;;17.70;10.07;;;8.20;99.90;;;;;;5088299;28;20036;-73
2022/04/26 05:26:28;;;;;;;20.38;9.45;;;8.20;99.90;;;;;;5090149;28;20127;-73
2022/04/26 05:28:53;;;;;;;17.33;9.38;;;8.20;99.90;;;;;;5090372;28;20118;-73
2022/04/26 05:31:19;;;;;;;20.80;9.95;;;8.20;99.90;;;;;;5111034;28;20184;-73
2022/04/26 05:33:45;;;;;;;20.92;9.07;;;8.20;99.90;;;;;;5116778;28;20093;-73
2022/04/26 05:36:10;;;;;;;22.65;8.93;;;8.30;99.90;;;;;;5116702;28;20040;-73
2022/04/26 05:38:36;;;;;;;24.83;9.25;;;8.30;99.90;;;;;;5125092;27;20042;-73
2022/04/26 05:41:02;;;;;;;19.40;8.98;;;8.30;99.90;;;;;;5119476;28;20107;-73
2022/04/26 05:43:28;;;;;;;19.65;9.02;;;8.30;99.90;;;;;;5121922;28;20031;-73
2022/04/26 05:45:53;;;;;;;18.33;8.40;;;8.30;99.90;;;;;;5122331;28;20080;-74
2022/04/26 05:48:19;;;;;;;15.88;7.55;;;8.30;99.90;;;;;;5120401;27;20042;-73
2022/04/26 05:50:45;;;;;;;20.52;7.80;;;8.40;99.90;;;;;;5107972;28;20047;-74
2022/04/26 05:53:11;;;;;;;18.52;7.70;;;8.40;99.90;;;;;;5122867;27;20115;-73
2022/04/26 05:55:38;;;;;;;14.00;7.72;;;8.40;99.90;;;;;;5124484;27;20035;-73
2022/04/26 05:58:04;;;;;;;22.90;7.65;;;8.40;99.90;;;;;;5108039;27;20099;-73
2022/04/26 06:00:31;;;;;;;14.13;7.57;;;8.40;99.90;;;;;;5124772;27;20051;-73
2022/04/26 06:02:56;;;;;;;16.35;7.63;;;8.40;99.90;;;;;;5116411;27;20078;-73
2022/04/26 06:05:22;;;;;;;17.20;6.55;;;8.50;99.90;;;;;;5114051;28;20043;-73
2022/04/26 06:07:48;;;;;;;18.02;6.53;;;8.50;99.90;;;;;;5114010;28;20043;-73
2022/04/26 06:10:14;;;;;;;16.25;6.18;;;8.50;99.90;;;;;;5116532;27;20039;-73
2022/04/26 06:12:42;;;;;;;14.40;6.60;;;8.60;99.90;;;;;;5125066;27;20043;-73
2022/04/26 06:15:08;;;;;;;26.58;7.03;;;8.60;99.90;;;;;;5116257;27;20035;-73
2022/04/26 06:17:34;;;;;;;18.30;6.93;;;8.70;99.90;;;;;;5124769;27;20115;-73
2022/04/26 06:19:59;;;;;;;15.77;5.97;;;8.70;99.90;;;;;;5119922;27;20490;-73
2022/04/26 06:22:25;;;;;;;11.35;5.95;;;8.80;99.90;;;;;;5123186;27;20050;-73
2022/04/26 06:24:52;;;;;;;17.23;6.10;;;8.80;99.90;;;;;;5124668;27;20058;-73
2022/04/26 06:27:18;;;;;;;17.67;6.93;;;8.90;99.90;;;;;;5125171;27;20027;-73
2022/04/26 06:29:44;;;;;;;14.27;5.97;;;9.00;99.90;;;;;;5130926;27;20090;-73
2022/04/26 06:32:10;;;;;;;16.58;6.10;;;9.00;99.90;;;;;;5124157;27;20039;-73
2022/04/26 06:34:35;;;;;;;14.18;6.65;;;9.00;99.90;;;;;;5121666;27;20447;-73
2022/04/26 06:37:01;;;;;;;11.65;5.57;;;9.10;99.90;;;;;;5118755;27;20035;-73
2022/04/26 06:39:27;;;;;;;15.13;5.32;;;9.10;99.90;;;;;;5122811;27;20039;-73
2022/04/26 06:41:53;;;;;;;15.63;5.63;;;9.20;99.90;;;;;;5122006;27;20047;-74
2022/04/26 06:44:18;;;;;;;11.82;4.72;;;9.20;99.90;;;;;;5121918;27;20111;-73
2022/04/26 06:46:44;;;;;;;11.57;4.65;;;9.30;99.90;;;;;;5123883;27;20035;-73
2022/04/26 06:49:10;;;;;;;15.23;5.05;;;9.40;99.90;;;;;;5126157;27;20039;-74
2022/04/26 06:51:40;;;;;;;15.85;4.88;;;9.60;99.90;;;;;;5121892;27;20043;-73
2022/04/26 06:54:07;;;;;;;12.20;4.20;;;9.70;99.90;;;;;;5122820;27;20042;-73
2022/04/26 06:56:33;;;;;;;14.77;4.82;;;9.80;99.90;;;;;;5131731;27;20432;-73
2022/04/26 06:58:58;;;;;;;10.88;4.50;;;10.00;99.90;;;;;;5133443;27;20075;-74
2022/04/26 07:01:24;;;;;;;11.68;4.78;;;10.10;99.90;;;;;;5108462;27;20043;-73
2022/04/26 07:03:50;;;;;;;15.68;4.72;;;10.20;99.90;;;;;;5103325;27;20047;-73
2022/04/26 07:06:16;;;;;;;12.63;4.75;;;10.20;99.90;;;;;;5121779;27;20042;-73
2022/04/26 07:08:42;;;;;;;11.35;4.00;;;10.20;99.90;;;;;;5126802;27;20035;-73
2022/04/26 07:11:08;;;;;;;14.95;4.75;;;10.20;99.90;;;;;;5122408;27;20039;-73
2022/04/26 07:13:34;;;;;;;10.60;4.07;;;10.20;99.90;;;;;;5118726;27;20031;-73
2022/04/26 07:16:00;;;;;;;13.90;4.40;;;10.20;99.90;;;;;;5118672;27;20550;-73
2022/04/26 07:18:26;;;;;;;9.63;3.97;;;10.20;99.90;;;;;;5116519;27;20063;-73
2022/04/26 07:20:52;;;;;;;8.63;3.85;;;10.20;99.90;;;;;;5111179;28;20043;-73
2022/04/26 07:23:21;;;;;;;10.52;3.78;;;10.20;99.90;;;;;;5111655;28;20048;-73
2022/04/26 07:25:47;;;;;;;14.63;4.45;;;10.30;99.90;;;;;;5149042;27;20039;-73
2022/04/26 07:28:12;;;;;;;12.60;3.80;;;10.30;99.90;;;;;;5122499;27;20031;-73
2022/04/26 07:30:39;;;;;;;14.25;3.65;;;10.30;99.90;;;;;;5126874;27;20142;-73
2022/04/26 07:35:53;;;;;;;10.90;4.10;;;10.60;99.90;;;;;;5091844;28;20040;-73
2022/04/26 07:38:19;;;;;;;8.00;3.80;;;10.80;99.90;;;;;;5091593;28;20036;-73
2022/04/26 07:40:46;;;;;;;10.10;3.63;;;11.00;99.90;;;;;;5091208;28;20059;-73
2022/04/26 07:43:13;;;;;;;10.10;3.50;;;11.10;99.90;;;;;;5091427;28;20078;-73
2022/04/26 07:45:40;;;;;;;8.85;3.63;;;11.20;99.90;;;;;;5091600;28;20091;-73
2022/04/26 07:48:07;;;;;;;7.40;3.20;;;11.30;99.90;;;;;;5090880;28;20127;-73
2022/04/26 07:50:35;;;;;;;12.13;3.78;;;11.50;99.90;;;;;;5091546;28;20040;-73
2022/04/26 07:53:02;;;;;;;8.68;3.30;;;11.60;99.90;;;;;;5091391;28;20040;-73
2022/04/26 07:55:28;;;;;;;12.90;3.00;;;11.80;99.90;;;;;;5091471;28;20047;-74
2022/04/26 07:57:54;;;;;;;9.90;2.75;;;11.80;99.90;;;;;;5091397;28;20123;-73
2022/04/26 08:00:20;;;;;;;7.68;3.60;;;11.80;99.90;;;;;;5091005;28;20534;-74
2022/04/26 08:02:45;;;;;;;8.40;3.00;;;11.70;99.90;;;;;;5091225;28;20410;-74
2022/04/26 08:05:12;;;;;;;8.95;3.38;;;11.80;99.90;;;;;;5091315;28;20036;-74
2022/04/26 08:07:41;;;;;;;8.48;2.90;;;11.70;99.90;;;;;;5091091;28;20036;-74
2022/04/26 08:10:08;;;;;;;9.05;3.20;;;11.70;99.90;;;;;;5090943;28;20028;-74
2022/04/26 08:12:33;;;;;;;8.80;3.15;;;11.80;99.90;;;;;;5090917;28;20043;-74
2022/04/26 08:14:59;;;;;;;9.00;3.75;;;11.70;99.90;;;;;;5091046;28;20177;-74
2022/04/26 08:17:24;;;;;;;10.82;3.20;;;11.70;99.90;;;;;;5091002;28;20048;-74
2022/04/26 08:19:50;;;;;;;11.00;3.20;;;11.70;99.90;;;;;;5090697;28;20573;-74
2022/04/26 08:22:16;;;;;;;7.75;3.20;;;11.70;99.90;;;;;;5091001;28;20513;-74
2022/04/26 08:27:26;;;;;;;10.45;3.05;;;11.70;99.90;;;;;;5090688;28;20123;-73
2022/04/26 08:29:56;;;;;;;9.43;3.13;;;11.70;99.90;;;;;;5090693;28;20545;-73
2022/04/26 08:32:23;;;;;;;11.18;3.13;;;11.70;99.90;;;;;;5091195;28;20039;-73
2022/04/26 08:34:49;;;;;;;5.75;2.78;;;11.60;99.90;;;;;;5092191;28;20039;-73
2022/04/26 08:37:15;;;;;;;8.57;3.00;;;11.60;99.90;;;;;;5090931;28;20036;-74
2022/04/26 08:39:40;;;;;;;7.57;2.88;;;11.60;99.90;;;;;;5090625;28;20048;-74
2022/04/26 08:42:06;;;;;;;9.25;3.20;;;11.60;99.90;;;;;;5090726;28;20036;-74
2022/04/26 08:44:34;;;;;;;7.53;2.92;;;11.60;99.90;;;;;;5090734;28;20042;-73
2022/04/26 08:52:48;;;;;;;6.35;2.72;;;11.70;99.90;;;;;;5090661;28;20134;-73
2022/04/26 08:55:15;;;;;;;7.57;2.95;;;11.80;99.90;;;;;;5090859;28;20389;-74
2022/04/26 08:57:41;;;;;;;7.00;2.97;;;11.90;99.90;;;;;;5090676;28;20476;-74
2022/04/26 09:00:11;;;;;;;7.95;2.95;;;12.00;99.90;;;;;;5090568;28;20109;-74
2022/04/26 09:02:37;;;;;;;9.75;3.10;;;12.10;99.90;;;;;;5090607;28;20409;-74
2022/04/26 09:05:10;;;;;;;10.68;3.22;;;12.10;99.90;;;;;;5090833;28;20351;-73
2022/04/26 09:07:37;;;;;;;14.63;3.40;;;12.10;99.90;;;;;;5094156;28;20398;-74
2022/04/26 09:10:15;;;;;;;10.32;3.55;;;12.20;99.90;;;;;;5088590;28;20575;-74
2022/04/26 09:13:09;;;;;;;8.95;2.90;;;12.30;99.90;;;;;;5088626;28;20537;-74
2022/04/26 09:15:37;;;;;;;6.57;3.15;;;12.50;99.90;;;;;;5088731;28;20601;-74
2022/04/26 09:18:15;;;;;;;9.57;3.40;;;12.60;99.90;;;;;;5088288;28;20048;-73
2022/04/26 09:20:41;;;;;;;8.98;2.88;;;12.60;99.90;;;;;;5088146;28;20517;-73
2022/04/26 09:23:18;;;;;;;6.78;2.90;;;12.80;99.90;;;;;;5088527;28;20494;-74
2022/04/26 09:25:44;;;;;;;6.00;2.80;;;12.90;99.80;;;;;;5094024;28;20036;-74
2022/04/26 09:28:22;;;;;;;7.65;3.00;;;13.00;99.00;;;;;;5094109;28;20550;-74
2022/04/26 09:30:49;;;;;;;5.32;2.95;;;13.00;99.90;;;;;;5094265;28;20036;-74
2022/04/26 09:33:38;;;;;;;9.40;3.15;;;13.00;99.90;;;;;;5094117;28;20050;-74
2022/04/26 09:36:06;;;;;;;9.98;3.30;;;13.00;99.90;;;;;;5094106;28;20491;-74
2022/04/26 09:38:33;;;;;;;6.03;2.95;;;13.00;97.70;;;;;;5094170;28;20046;-74
2022/04/26 09:41:05;;;;;;;9.32;3.30;;;13.00;98.00;;;;;;5093843;28;20035;-74
2022/04/26 09:43:31;;;;;;;6.53;2.95;;;13.10;99.30;;;;;;5093974;28;20048;-74
2022/04/26 09:45:59;;;;;;;6.18;3.35;;;13.30;99.70;;;;;;5093970;28;20405;-74
2022/04/26 09:48:32;;;;;;;8.30;3.13;;;13.50;97.10;;;;;;5110926;28;20068;-74
2022/04/26 09:50:58;;;;;;;8.50;3.50;;;13.70;97.40;;;;;;5077027;28;20046;-74
2022/04/26 09:53:25;;;;;;;5.93;2.90;;;14.00;99.80;;;;;;5093951;28;20516;-74
2022/04/26 09:55:55;;;;;;;6.80;3.13;;;14.50;97.70;;;;;;5093731;28;20130;-73
2022/04/26 09:58:23;;;;;;;6.75;2.90;;;15.00;96.00;;;;;;5094255;28;20040;-74
2022/04/26 10:00:50;;;;;;;7.30;3.30;;;15.50;86.20;;;;;;5093621;28;20043;-74
2022/04/26 10:03:20;;;;;;;7.13;3.05;;;15.80;83.40;;;;;;5093361;28;20043;-74
2022/04/26 10:05:49;;;;;;;9.60;2.78;;;15.90;82.20;;;;;;5093848;28;20127;-73
2022/04/26 10:08:18;;;;;;;7.57;3.40;;;15.80;78.30;;;;;;5093353;28;20032;-74
2022/04/26 10:10:44;;;;;;;6.07;2.88;;;15.60;77.00;;;;;;5093395;28;20084;-74
2022/04/26 10:13:31;;;;;;;9.13;3.03;;;15.40;77.90;;;;;;5093547;28;20044;-73
2022/04/26 10:16:11;;;;;;;5.32;2.72;;;15.10;75.60;;;;;;5093439;28;20076;-73
2022/04/26 10:18:45;;;;;;;5.75;2.85;;;15.20;76.90;;;;;;5093501;28;20040;-73
2022/04/26 10:21:22;;;;;;;7.43;3.00;;;15.40;76.20;;;;;;5076326;28;20048;-73
2022/04/26 10:23:51;;;;;;;10.18;2.97;;;15.60;73.40;;;;;;5093383;28;20097;-73
2022/04/26 10:26:26;;;;;;;4.50;2.67;;;15.70;72.50;;;;;;5093316;28;20036;-74
2022/04/26 10:28:53;;;;;;;6.30;2.90;;;15.70;71.10;;;;;;5093321;28;20036;-74
2022/04/26 10:31:36;;;;;;;4.75;3.15;;;15.60;70.10;;;;;;5093113;28;20075;-74
2022/04/26 10:34:14;;;;;;;;;;;15.50;67.70;;;;;;5076905;28;20036;-73
2022/04/26 10:36:41;;;;;;;7.55;2.90;;;15.20;70.40;;;;;;5092718;28;19920;-73
2022/04/26 10:39:09;;;;;;;7.28;3.10;;;15.10;74.10;;;;;;5093101;28;20044;-73
2022/04/26 10:41:42;;;;;;;6.18;2.95;;;15.30;70.00;;;;;;5092465;28;20117;-74
2022/04/26 10:44:17;;;;;;;8.45;3.08;;;15.40;70.90;;;;;;5076180;28;20043;-74
2022/04/26 10:46:50;;;;;;;6.03;2.60;;;15.10;71.90;;;;;;5093074;28;20039;-73
2022/04/26 10:49:24;;;;;;;5.32;2.50;;;15.00;72.40;;;;;;5092737;28;20036;-74
2022/04/26 10:51:56;;;;;;;5.97;2.58;;;15.00;71.90;;;;;;5092567;28;20505;-74
2022/04/26 10:54:41;;;;;;;;;;;14.90;68.80;;;;;;5093368;28;20485;-73
2022/04/26 10:57:06;;;;;;;5.80;2.40;;;14.90;65.80;;;;;;5092364;28;19969;-74
2022/04/26 10:59:32;;;;;;;6.75;2.80;;;15.20;70.80;;;;;;5092492;28;20044;-74
2022/04/26 11:01:59;;;;;;;7.47;2.75;;;15.50;66.50;;;;;;5092491;28;20097;-74
2022/04/26 11:04:25;;;;;;;5.07;2.70;;;15.90;69.50;;;;;;5092631;28;20124;-74
2022/04/26 11:06:50;;;;;;;10.02;2.60;;;16.00;67.00;;;;;;5092539;28;20119;-74
2022/04/26 11:09:16;;;;;;;6.22;2.67;;;16.00;69.60;;;;;;5092611;28;20032;-74
2022/04/26 11:11:50;;;;;;;5.93;2.80;;;16.00;69.90;;;;;;5092288;28;20040;-74
2022/04/26 11:14:17;;;;;;;8.48;3.05;;;16.20;68.50;;;;;;5092543;28;20051;-74
2022/04/26 11:17:04;;;;;;;6.60;2.50;;;16.40;65.00;;;;;;5092357;28;20050;-73
2022/04/26 11:19:37;;;;;;;5.45;2.67;;;16.70;67.60;;;;;;5091914;28;20093;-73
2022/04/26 11:22:04;;;;;;;;;;;17.10;63.90;;;;;;5092595;28;20036;-74
2022/04/26 11:29:57;;;;;;;5.90;2.65;;;16.70;62.40;;;;;;5091709;28;20036;-73
2022/04/26 11:32:34;;;;;;;5.72;2.30;;;16.70;62.10;;;;;;5092147;28;20044;-73
2022/04/26 11:35:01;;;;;;;4.70;2.30;;;16.90;60.00;;;;;;5092023;28;20059;-73
2022/04/26 11:37:27;;;;;;;4.03;2.30;;;17.30;60.30;;;;;;5091897;28;20051;-73
2022/04/26 11:39:53;;;;;;;5.45;2.45;;;17.60;59.00;;;;;;5091750;28;20036;-73
2022/04/26 11:42:20;;;;;;;7.00;2.33;;;17.70;55.10;;;;;;5091560;28;20055;-73
2022/04/26 11:45:06;;;;;;;5.65;2.05;;;17.80;53.70;;;;;;5091931;28;20158;-73
2022/04/26 11:47:41;;;;;;;5.93;2.20;;;17.80;55.20;;;;;;5090769;28;20043;-73
2022/04/26 11:50:11;;;;;;;5.50;2.47;;;18.10;55.90;;;;;;5091483;28;20126;-74
2022/04/26 11:52:36;;;;;;;4.70;2.20;;;18.40;54.60;;;;;;5091591;28;20055;-74
2022/04/26 11:55:02;;;;;;;5.45;2.30;;;18.30;52.80;;;;;;5091690;28;20048;-74
2022/04/26 11:57:28;;;;;;;7.30;2.60;;;18.10;54.30;;;;;;5091367;28;20047;-73
2022/04/26 11:59:54;;;;;;;6.97;2.40;;;17.80;54.40;;;;;;5091088;28;20100;-73
2022/04/26 12:02:20;;;;;;;6.10;2.30;;;17.70;55.50;;;;;;5091187;28;20040;-73
2022/04/26 12:04:46;;;;;;;4.97;2.30;;;17.90;52.70;;;;;;5091237;28;20513;-73
2022/04/26 12:07:12;;;;;;;4.13;2.45;;;18.10;53.50;;;;;;5091287;28;20036;-73
2022/04/26 12:09:37;;;;;;;7.05;1.95;;;18.40;54.00;;;;;;5091182;28;20067;-74
2022/04/26 12:12:05;;;;;;;6.88;1.90;;;18.50;52.90;;;;;;5091173;28;20116;-73
2022/04/26 12:14:31;;;;;;;5.15;1.90;;;18.30;52.10;;;;;;5091313;28;20543;-73
2022/04/26 12:16:57;;;;;;;4.82;2.05;;;18.20;51.40;;;;;;5074149;28;20052;-73
2022/04/26 12:19:51;;;;;;;3.17;1.90;;;18.10;51.20;;;;;;5091398;28;20131;-73
2022/04/26 12:22:18;;;;;;;4.80;2.03;;;18.30;50.30;;;;;;5088910;28;20054;-73
2022/04/26 12:24:50;;;;;;;4.00;1.85;;;18.60;48.80;;;;;;5090833;28;20494;-73
2022/04/26 12:27:22;;;;;;;4.00;1.83;;;18.70;49.80;;;;;;5091052;28;20039;-74
2022/04/26 12:29:48;;;;;;;;;;;18.80;49.60;;;;;;5092460;28;20119;-74
2022/04/26 12:32:19;;;;;;;5.68;2.00;;;18.50;50.10;;;;;;5091170;28;19916;-73
2022/04/26 12:34:56;;;;;;;5.63;2.00;;;18.50;50.20;;;;;;5091119;28;20075;-73
2022/04/26 12:37:25;;;;;;;5.20;2.00;;;18.80;48.30;;;;;;5090933;28;20044;-73
2022/04/26 12:39:53;;;;;;;7.00;2.08;;;19.10;49.00;;;;;;5090589;28;20054;-73
2022/04/26 12:42:29;;;;;;;5.32;2.30;;;19.40;47.70;;;;;;5091885;28;20040;-73
2022/04/26 12:45:06;;;;;;;4.05;2.35;;;19.60;47.80;;;;;;5091005;28;20071;-73
2022/04/26 12:50:28;;;;;;;5.43;2.10;;;19.20;47.70;;;;;;5090641;28;20056;-73
2022/04/26 12:53:04;;;;;;;4.32;2.00;;;19.10;45.70;;;;;;5090922;28;20493;-73
2022/04/26 12:55:33;;;;;;;6.88;2.08;;;19.00;47.50;;;;;;5091040;28;20506;-73
2022/04/26 12:58:05;;;;;;;3.97;2.10;;;19.20;48.00;;;;;;5091395;28;20479;-73
2022/04/26 13:00:32;;;;;;;5.03;2.47;;;19.40;46.90;;;;;;5094868;28;20390;-73
2022/04/26 13:03:04;;;;;;;4.75;2.10;;;19.50;48.50;;;;;;5094831;28;20390;-72
2022/04/26 13:05:39;;;;;;;4.00;2.05;;;19.80;47.90;;;;;;5094621;28;20595;-73
2022/04/26 13:08:05;;;;;;;6.28;2.35;;;19.90;47.80;;;;;;5108176;27;20042;-73
2022/04/26 13:10:31;;;;;;;4.63;2.20;;;19.90;46.40;;;;;;5113006;28;20039;-73
2022/04/26 13:12:56;;;;;;;6.47;2.05;;;19.90;47.30;;;;;;5113349;28;20051;-73
2022/04/26 13:15:23;;;;;;;6.15;2.13;;;19.80;43.20;;;;;;5113401;28;20051;-73
2022/04/26 13:17:50;;;;;;;5.55;2.00;;;19.50;45.40;;;;;;5113197;28;20516;-73
2022/04/26 13:20:15;;;;;;;2.80;2.08;;;18.90;48.00;;;;;;5113025;28;20036;-73
2022/04/26 13:22:41;;;;;;;4.35;1.85;;;18.70;47.00;;;;;;5112701;28;20047;-73
2022/04/26 13:25:08;;;;;;;3.28;2.00;;;18.70;48.60;;;;;;5096233;28;20489;-73
2022/04/26 13:27:36;;;;;;;6.13;2.13;;;18.90;46.30;;;;;;5114788;28;20392;-73
2022/04/26 13:30:03;;;;;;;8.15;2.30;;;18.90;46.30;;;;;;5114366;28;20508;-73
2022/04/26 13:32:30;;;;;;;5.47;2.10;;;19.00;47.10;;;;;;5097834;28;20489;-73
2022/04/26 13:34:59;;;;;;;3.20;1.90;;;19.30;47.30;;;;;;5113722;28;20482;-73
2022/04/26 13:37:25;;;;;;;4.75;1.95;;;19.60;44.60;;;;;;5131847;27;20091;-73
2022/04/26 13:39:52;;;;;;;3.65;1.90;;;19.80;45.80;;;;;;5148879;27;20440;-73
2022/04/26 13:42:19;;;;;;;5.68;2.10;;;19.80;44.40;;;;;;5148879;27;20482;-73
2022/04/26 13:44:45;;;;;;;3.15;1.80;;;19.90;45.70;;;;;;5148820;27;20028;-73
2022/04/26 13:47:11;;;;;;;3.63;1.98;;;20.20;46.60;;;;;;5148963;27;20401;-73
2022/04/26 13:49:39;;;;;;;7.38;2.10;;;20.50;46.00;;;;;;5115261;28;20036;-73
2022/04/26 13:52:06;;;;;;;4.57;2.10;;;20.70;44.40;;;;;;5148645;27;20409;-73
2022/04/26 13:54:33;;;;;;;4.30;2.05;;;20.70;44.50;;;;;;5148630;27;20460;-73
2022/04/26 13:56:59;;;;;;;6.97;2.25;;;20.80;43.20;;;;;;5148332;27;20513;-73
2022/04/26 13:59:26;;;;;;;5.35;2.10;;;20.90;45.90;;;;;;5148416;27;20043;-73
2022/04/26 14:01:53;;;;;;;5.75;2.15;;;21.00;43.60;;;;;;5148283;27;20119;-73
2022/04/26 14:04:19;;;;;;;3.80;2.03;;;20.90;42.30;;;;;;5148712;27;20554;-72
2022/04/26 14:06:47;;;;;;;7.57;1.88;;;20.60;43.60;;;;;;5148538;27;20534;-72
2022/04/26 14:09:12;;;;;;;3.40;1.85;;;20.20;43.70;;;;;;5113394;28;20036;-73
2022/04/26 14:11:38;;;;;;;6.88;2.38;;;19.90;46.10;;;;;;5148077;27;20054;-74
2022/04/26 14:22:16;;;;;;;3.95;1.80;;;20.70;44.40;;;;;;5114989;28;20039;-73
2022/04/26 14:24:43;;;;;;;4.35;1.70;;;20.90;43.40;;;;;;5148364;27;20443;-73
2022/04/26 14:27:09;;;;;;;3.28;2.05;;;21.10;44.00;;;;;;5148150;27;20493;-73
2022/04/26 14:29:35;;;;;;;7.40;2.10;;;21.20;43.80;;;;;;5147700;27;20044;-73
2022/04/26 14:32:00;;;;;;;3.75;1.60;;;21.40;41.20;;;;;;5103316;27;20039;-73
2022/04/26 14:34:26;;;;;;;5.80;2.10;;;21.10;44.00;;;;;;5101968;28;20047;-72
2022/04/26 14:36:52;;;;;;;7.28;2.15;;;20.90;42.60;;;;;;5111320;28;20127;-73
2022/04/26 14:39:18;;;;;;;4.10;1.83;;;20.90;44.90;;;;;;5107043;28;20050;-72
2022/04/26 14:41:43;;;;;;;2.88;1.95;;;21.20;41.50;;;;;;5108914;28;20126;-73
2022/04/26 14:44:09;;;;;;;4.82;2.00;;;21.10;42.90;;;;;;5111616;28;20044;-72
2022/04/26 14:46:35;;;;;;;4.63;2.10;;;21.20;44.40;;;;;;5109166;28;20035;-72
2022/04/26 14:49:06;;;;;;;3.75;1.90;;;21.40;42.90;;;;;;5113085;28;20538;-73
2022/04/26 14:51:32;;;;;;;5.95;2.08;;;21.60;42.30;;;;;;5108838;28;20036;-73
2022/04/26 14:53:57;;;;;;;5.43;2.20;;;21.50;42.20;;;;;;5111912;28;20140;-72
2022/04/26 14:56:23;;;;;;;3.55;1.90;;;21.70;41.00;;;;;;5110904;28;20511;-73
2022/04/26 14:58:49;;;;;;;3.85;2.05;;;21.60;43.50;;;;;;5111737;28;20048;-72
2022/04/26 15:01:19;;;;;;;6.07;2.08;;;21.50;42.80;;;;;;5112457;27;20035;-73
2022/04/26 15:03:45;;;;;;;4.35;2.05;;;21.60;42.30;;;;;;5122333;27;20040;-73
2022/04/26 15:06:13;;;;;;;3.85;2.17;;;21.60;42.10;;;;;;5112273;27;20044;-73
2022/04/26 15:11:23;;;;;;;4.65;2.20;;;21.20;41.20;;;;;;5109373;28;20039;-73
2022/04/26 15:16:39;;;;;;;6.38;2.40;;;20.30;43.00;;;;;;5092239;28;20040;-72
2022/04/26 15:19:07;;;;;;;5.13;2.03;;;19.80;44.40;;;;;;5103896;28;20520;-72
2022/04/26 15:21:33;;;;;;;6.82;2.30;;;19.60;42.60;;;;;;5111050;28;20046;-72
2022/04/26 15:23:59;;;;;;;4.10;2.00;;;19.20;44.90;;;;;;5110298;28;20070;-73
2022/04/26 15:26:25;;;;;;;4.18;2.00;;;18.90;45.30;;;;;;5091385;28;20040;-73
2022/04/26 15:28:52;;;;;;;4.60;1.98;;;18.70;46.10;;;;;;5105933;28;20043;-73
2022/04/26 15:31:19;;;;;;;5.35;2.13;;;18.60;45.30;;;;;;5121535;27;20036;-73
2022/04/26 15:33:49;;;;;;;3.78;2.03;;;18.50;46.30;;;;;;5111460;28;20546;-73
2022/04/26 15:36:16;;;;;;;4.60;2.10;;;18.60;47.60;;;;;;5110707;28;20050;-73
2022/04/26 15:38:43;;;;;;;3.08;2.17;;;18.50;47.70;;;;;;5111600;28;20035;-73
2022/04/26 15:41:09;;;;;;;4.22;2.20;;;18.70;47.80;;;;;;5111251;28;20040;-73
2022/04/26 15:43:36;;;;;;;4.35;2.38;;;18.70;48.20;;;;;;5111701;28;20043;-73
2022/04/26 15:46:09;;;;;;;5.70;2.45;;;18.80;49.40;;;;;;5111196;28;20043;-73
2022/04/26 15:48:42;;;;;;;7.53;2.08;;;19.10;47.60;;;;;;5106896;28;20051;-73
2022/04/26 15:51:08;;;;;;;4.85;2.35;;;19.30;48.40;;;;;;5111725;28;20039;-73
2022/04/26 15:53:34;;;;;;;5.72;2.30;;;19.60;48.20;;;;;;5112141;28;20172;-73
2022/04/26 15:56:00;;;;;;;5.97;2.22;;;19.70;47.90;;;;;;5111913;28;20134;-73
2022/04/26 15:58:26;;;;;;;6.07;2.40;;;19.60;47.90;;;;;;5099050;28;20032;-73
2022/04/26 16:00:55;;;;;;;5.22;2.00;;;19.40;46.60;;;;;;5091760;28;20104;-72
2022/04/26 16:03:21;;;;;;;5.18;2.40;;;19.40;47.50;;;;;;5102418;28;20044;-73
2022/04/26 16:05:47;;;;;;;4.88;2.22;;;19.60;47.90;;;;;;5111057;28;20444;-71
2022/04/26 16:08:16;;;;;;;3.92;2.30;;;19.70;48.30;;;;;;5111269;27;20027;-71
2022/04/26 16:21:38;;;;;;;7.95;2.13;;;20.50;44.00;;;;;;5112801;27;20065;-72
2022/04/26 16:24:05;;;;;;;4.47;2.25;;;20.30;44.20;;;;;;5112419;27;20062;-73
2022/04/26 16:26:34;;;;;;;4.90;2.13;;;20.40;45.70;;;;;;5122860;27;20046;-72
2022/04/26 16:29:00;;;;;;;5.03;2.15;;;20.40;45.00;;;;;;5114379;27;20039;-72
2022/04/26 16:31:29;;;;;;;5.70;2.30;;;20.50;43.70;;;;;;5110872;27;20046;-72
2022/04/26 16:34:00;;;;;;;4.75;2.05;;;20.40;43.80;;;;;;5110952;28;20044;-73
2022/04/26 16:36:28;;;;;;;5.10;2.22;;;20.20;43.20;;;;;;5146109;27;20035;-72
2022/04/26 16:38:54;;;;;;;6.18;2.30;;;20.10;44.60;;;;;;5085799;28;20055;-72
2022/04/26 16:41:20;;;;;;;5.47;2.20;;;20.00;44.70;;;;;;5103628;28;20464;-73
2022/04/26 16:43:49;;;;;;;5.03;2.20;;;20.20;45.30;;;;;;5088986;28;20051;-73
2022/04/26 16:46:19;;;;;;;3.75;2.22;;;20.30;45.50;;;;;;5105760;28;20027;-74
2022/04/26 16:48:45;;;;;;;5.85;2.22;;;20.50;45.70;;;;;;5143821;27;20040;-73
2022/04/26 16:51:12;;;;;;;4.63;2.03;;;20.40;44.80;;;;;;5106661;28;20220;-74
2022/04/26 16:53:38;;;;;;;5.43;2.15;;;20.20;44.80;;;;;;5108551;28;20084;-74
2022/04/26 16:56:05;;;;;;;3.58;1.90;;;20.20;45.30;;;;;;5108542;28;20055;-74
2022/04/26 16:58:31;;;;;;;3.65;2.20;;;20.20;45.40;;;;;;5107191;28;20032;-73
2022/04/26 17:00:57;;;;;;;4.38;2.17;;;20.00;45.00;;;;;;5109833;28;20046;-74
2022/04/26 17:03:23;;;;;;;6.82;1.90;;;19.90;44.30;;;;;;5107117;28;20070;-73
2022/04/26 17:05:49;;;;;;;4.97;2.33;;;19.30;45.30;;;;;;5101736;28;20053;-74
2022/04/26 17:08:17;;;;;;;5.25;2.10;;;18.90;47.00;;;;;;5141902;27;20028;-74
2022/04/26 17:10:45;;;;;;;4.80;1.85;;;18.80;47.70;;;;;;5108655;28;20074;-73